Portada
METAR-TAF:

METAR-TAF

Aeroports :

Al-Kuwait, Kuwait

latitud: 29-13N, longitud: 047-59E, altitud: 55 m

Observació

L'informe es va fer fa 29 minuts, a les 16:00 UTC
Vent calma
Temperatura 27°C
Humitat 89%
Pressió 1015 hPa
Visibilitat 10 km o més
Escasses núvols a una alçada de 3000 ft, Cumulonimbus.
Núvols disperses a una alçada de 8000 ft

METAR: OKBK 231600Z 00000KT 9999 FEW030CB SCT080 27/25 Q1015 NOSIG

Hora: 19:29 (16:29 UTC)

Pronòstic

L'informe es va fer fa 5 hores i 44 minuts, a les 10:45 UTC
Pronòstic vàlid del 23 a les 12 UTC al 24 a les 18 UTC
Vent 3 kt amb direcció variable
Visibilitat: 6000 m
Escasses núvols a una alçada de 4000 ft
Cel ennuvolat a una alçada de 8000 ft
Temporalment
l' 23 a les 12 UTC al 23 a les 22 UTC
Vent 10 kt del Est/Sud-Est amb ràfegues de 20 kt
Visibilitat: 3000 m
Escasses núvols a una alçada de 3000 ft, Cumulonimbus.

TAF: OKBK 231045Z 2312/2418 VRB03KT 6000 FEW040 BKN080 TEMPO 2312/2322 12010G20KT 3000 -TSRA/BLDU FEW030CB

Observacions i pronòstics meteorològics de més de 4000 aeroports (METAR i TAF).

Les estacions disponibles són els punts grocs i vermells al mapa.

Posi el ratolí al punt desitjat per veure el nom de l'estació.

Feu clic per veure les observacions i els pronòstics meteorològics.

Per canviar el mapa: feu clic els botons verds amb una creu de color negre per apropar; al botó verd amb un guió per allunyar la imatge; o en les fletxes verdes per a mapes adjacents.


METAR-TAF: